Time;durP1;ratioP1;P1;durP2;ratioP2;P2;SDS_P1;SDS_P2;PMS_P1;PMS_P2;Temp;Humidity;BMP_temperature;BMP_pressure;BME280_temperature;BME280_humidity;BME280_pressure;Samples;Min_cycle;Max_cycle;Signal;HPM_P1;HPM_P2
2021/03/30 00:00:12;;;;;;;14.30;7.60;;;12.10;58.70;;;;;;5054248;28;20017;-77
2021/03/30 00:02:38;;;;;;;12.73;7.15;;;12.10;58.80;;;;;;5054168;28;20017;-78
2021/03/30 00:05:04;;;;;;;14.35;7.68;;;12.10;58.90;;;;;;5056003;28;20017;-78
2021/03/30 00:07:30;;;;;;;14.50;7.82;;;12.00;59.20;;;;;;5053924;28;20120;-77
2021/03/30 00:09:56;;;;;;;18.65;9.60;;;12.00;59.10;;;;;;5054291;28;20024;-77
2021/03/30 00:12:22;;;;;;;18.10;9.30;;;12.00;59.10;;;;;;5055449;28;20037;-77
2021/03/30 00:14:47;;;;;;;16.42;9.07;;;12.00;59.10;;;;;;5053787;28;20025;-78
2021/03/30 00:17:13;;;;;;;17.48;10.20;;;11.90;59.20;;;;;;5054019;28;20017;-79
2021/03/30 00:19:39;;;;;;;11.13;7.38;;;11.80;59.30;;;;;;5053343;28;20013;-78
2021/03/30 00:22:04;;;;;;;16.63;9.05;;;11.80;59.80;;;;;;5054772;28;20021;-77
2021/03/30 00:24:30;;;;;;;15.77;8.32;;;11.80;60.30;;;;;;5054729;28;20021;-79
2021/03/30 00:26:56;;;;;;;17.80;11.00;;;11.70;60.30;;;;;;5054724;28;20017;-79
2021/03/30 00:29:21;;;;;;;17.40;9.50;;;11.70;60.30;;;;;;5053463;28;20039;-79
2021/03/30 00:31:47;;;;;;;18.17;11.15;;;11.70;60.40;;;;;;5053072;28;20021;-78
2021/03/30 00:34:12;;;;;;;17.35;10.45;;;11.70;60.80;;;;;;5053780;28;20107;-78
2021/03/30 00:36:38;;;;;;;14.40;8.68;;;11.70;61.00;;;;;;5053155;28;20079;-78
2021/03/30 00:39:04;;;;;;;18.17;10.50;;;11.70;61.30;;;;;;5053543;28;20021;-78
2021/03/30 00:41:30;;;;;;;16.33;10.23;;;11.70;61.40;;;;;;5054368;28;20370;-78
2021/03/30 00:43:55;;;;;;;15.75;9.63;;;11.70;61.60;;;;;;5053354;28;20027;-78
2021/03/30 00:46:23;;;;;;;16.73;10.13;;;11.70;61.80;;;;;;5053263;28;20046;-77
2021/03/30 00:48:50;;;;;;;14.63;9.07;;;11.70;61.80;;;;;;5053122;28;20108;-78
2021/03/30 00:51:17;;;;;;;17.13;10.57;;;11.70;62.00;;;;;;5053103;28;20040;-78
2021/03/30 00:53:43;;;;;;;16.52;9.43;;;11.60;61.70;;;;;;5054052;28;20024;-79
2021/03/30 00:56:09;;;;;;;17.90;10.55;;;11.60;61.60;;;;;;5054362;28;20372;-79
2021/03/30 00:58:35;;;;;;;15.70;8.43;;;11.70;61.60;;;;;;5052830;28;20024;-78
2021/03/30 01:01:01;;;;;;;16.05;9.82;;;11.60;62.10;;;;;;5054291;28;20484;-78
2021/03/30 01:03:26;;;;;;;14.98;9.68;;;11.60;62.50;;;;;;5054477;28;20021;-79
2021/03/30 01:05:52;;;;;;;20.52;11.85;;;11.60;62.60;;;;;;5052516;28;20025;-77
2021/03/30 01:08:21;;;;;;;15.52;9.88;;;11.60;62.50;;;;;;5053457;28;20029;-77
2021/03/30 01:10:57;;;;;;;17.92;9.93;;;11.60;62.50;;;;;;5056999;28;20085;-78
2021/03/30 01:13:53;;;;;;;14.38;9.15;;;11.60;62.70;;;;;;5055000;28;20477;-78
2021/03/30 01:16:27;;;;;;;15.73;9.43;;;11.50;63.40;;;;;;5052810;28;20029;-78
2021/03/30 01:19:08;;;;;;;18.58;9.98;;;11.50;63.20;;;;;;5052491;28;20020;-78
2021/03/30 01:21:59;;;;;;;16.70;9.30;;;11.50;63.40;;;;;;5052545;28;20063;-78
2021/03/30 01:24:36;;;;;;;15.35;9.48;;;11.40;63.90;;;;;;5056378;28;20021;-78
2021/03/30 01:27:09;;;;;;;22.48;11.40;;;11.40;64.00;;;;;;5056430;28;20052;-79
2021/03/30 01:29:39;;;;;;;18.65;10.30;;;11.40;64.10;;;;;;5052249;28;20059;-79
2021/03/30 01:32:22;;;;;;;19.23;10.50;;;11.30;63.90;;;;;;5053641;28;20036;-78
2021/03/30 01:34:49;;;;;;;19.08;11.05;;;11.30;64.00;;;;;;5053512;28;20052;-79
2021/03/30 01:37:16;;;;;;;20.77;11.68;;;11.30;64.00;;;;;;5053672;28;20021;-79
2021/03/30 01:39:44;;;;;;;14.40;7.75;;;11.20;63.80;;;;;;5053369;28;20104;-79
2021/03/30 01:42:11;;;;;;;20.88;11.30;;;11.20;64.00;;;;;;5052428;28;20032;-79
2021/03/30 01:44:41;;;;;;;17.80;11.48;;;11.20;64.00;;;;;;5051986;28;20017;-78
2021/03/30 01:47:07;;;;;;;18.98;12.00;;;11.20;64.00;;;;;;5052148;28;20021;-78
2021/03/30 01:49:35;;;;;;;20.60;10.75;;;11.10;63.90;;;;;;5051929;28;20037;-78
2021/03/30 01:52:01;;;;;;;17.83;9.40;;;11.10;64.10;;;;;;5051995;28;20033;-78
2021/03/30 01:54:27;;;;;;;19.15;10.75;;;11.10;64.50;;;;;;5053387;28;20056;-78
2021/03/30 01:56:55;;;;;;;24.33;11.88;;;11.10;64.80;;;;;;5051644;28;20096;-78
2021/03/30 01:59:22;;;;;;;17.33;9.75;;;11.00;64.50;;;;;;5051916;28;20021;-78
2021/03/30 02:01:48;;;;;;;19.85;11.40;;;11.00;64.50;;;;;;5053136;28;20020;-79
2021/03/30 02:04:14;;;;;;;18.30;10.77;;;11.00;64.80;;;;;;5053098;28;20024;-78
2021/03/30 02:06:43;;;;;;;26.75;13.35;;;11.00;65.00;;;;;;5052045;28;20505;-78
2021/03/30 02:09:15;;;;;;;24.67;12.98;;;11.00;64.80;;;;;;5053184;28;20031;-78
2021/03/30 02:11:46;;;;;;;22.90;13.93;;;10.90;64.70;;;;;;5052705;28;20064;-78
2021/03/30 02:14:12;;;;;;;21.65;11.63;;;10.80;64.70;;;;;;5053119;28;20017;-78
2021/03/30 02:16:56;;;;;;;20.58;11.70;;;10.80;64.70;;;;;;5051660;28;20067;-78
2021/03/30 02:19:28;;;;;;;21.33;13.48;;;10.70;65.00;;;;;;5053075;28;20021;-78
2021/03/30 02:22:30;;;;;;;22.63;12.68;;;10.70;64.80;;;;;;5052743;28;20108;-78
2021/03/30 02:24:58;;;;;;;20.27;11.25;;;10.70;64.90;;;;;;5050946;28;20059;-78
2021/03/30 02:27:25;;;;;;;21.13;10.02;;;10.60;65.10;;;;;;5051339;28;20403;-80
2021/03/30 02:29:54;;;;;;;21.55;12.23;;;10.60;65.90;;;;;;5051202;28;20187;-79
2021/03/30 02:32:23;;;;;;;25.60;12.73;;;10.60;66.20;;;;;;5050863;28;20052;-79
2021/03/30 02:34:51;;;;;;;19.30;11.40;;;10.60;66.00;;;;;;5051059;28;20024;-79
2021/03/30 02:37:19;;;;;;;21.38;12.57;;;10.60;66.30;;;;;;5051186;28;20074;-78
2021/03/30 02:39:47;;;;;;;23.25;12.02;;;10.60;66.20;;;;;;5052332;28;20450;-79
2021/03/30 02:42:13;;;;;;;21.85;13.70;;;10.50;66.20;;;;;;5050845;28;20020;-79
2021/03/30 02:44:40;;;;;;;17.33;9.30;;;10.50;66.50;;;;;;5051856;28;20016;-78
2021/03/30 02:47:07;;;;;;;21.20;12.15;;;10.40;66.60;;;;;;5052040;28;20505;-78
2021/03/30 02:49:35;;;;;;;21.80;12.60;;;10.40;67.00;;;;;;5050721;28;20017;-78
2021/03/30 02:52:02;;;;;;;19.27;12.90;;;10.40;67.00;;;;;;5050723;28;20348;-78
2021/03/30 02:54:28;;;;;;;20.70;11.00;;;10.40;66.90;;;;;;5050677;28;20119;-79
2021/03/30 02:56:58;;;;;;;22.33;12.00;;;10.40;67.10;;;;;;5084125;28;20100;-78
2021/03/30 02:59:25;;;;;;;21.05;11.13;;;10.40;67.30;;;;;;5052152;28;20013;-78
2021/03/30 03:01:51;;;;;;;22.70;11.07;;;10.30;67.10;;;;;;5050491;28;20112;-78
2021/03/30 03:04:17;;;;;;;20.83;12.65;;;10.30;67.10;;;;;;5052206;28;20127;-78
2021/03/30 03:06:43;;;;;;;26.50;14.75;;;10.20;67.00;;;;;;5051436;28;20497;-78
2021/03/30 03:09:10;;;;;;;25.40;14.25;;;10.10;66.70;;;;;;5052215;28;20020;-79
2021/03/30 03:11:40;;;;;;;23.98;13.55;;;10.10;66.70;;;;;;5050772;28;20029;-79
2021/03/30 03:14:08;;;;;;;23.73;13.63;;;10.00;66.80;;;;;;5050580;28;20020;-78
2021/03/30 03:16:35;;;;;;;19.08;11.85;;;10.00;67.20;;;;;;5051965;28;20012;-79
2021/03/30 03:19:01;;;;;;;23.67;12.27;;;9.90;67.40;;;;;;5052738;28;20029;-79
2021/03/30 03:21:27;;;;;;;27.63;15.40;;;9.90;68.10;;;;;;5054693;28;20049;-79
2021/03/30 03:23:53;;;;;;;22.77;13.65;;;9.90;68.10;;;;;;5054583;28;20052;-78
2021/03/30 03:26:19;;;;;;;21.60;13.45;;;9.90;68.20;;;;;;5054777;28;20068;-79
2021/03/30 03:28:45;;;;;;;20.08;12.65;;;9.90;68.40;;;;;;5054460;28;20017;-78
2021/03/30 03:31:12;;;;;;;18.88;10.95;;;9.90;68.60;;;;;;5054450;28;20029;-78
2021/03/30 03:33:38;;;;;;;20.10;11.52;;;9.90;68.60;;;;;;5055635;28;20043;-78
2021/03/30 03:36:10;;;;;;;26.25;14.38;;;9.90;68.70;;;;;;5054260;28;20516;-79
2021/03/30 03:38:40;;;;;;;26.30;15.05;;;9.90;68.70;;;;;;5054333;28;20046;-79
2021/03/30 03:41:16;;;;;;;27.77;16.25;;;9.90;68.30;;;;;;5054439;28;20022;-79
2021/03/30 03:43:44;;;;;;;25.20;14.07;;;9.80;68.00;;;;;;5054003;28;20017;-79
2021/03/30 03:46:14;;;;;;;23.25;14.75;;;9.70;68.10;;;;;;5055383;28;20013;-77
2021/03/30 03:48:40;;;;;;;30.35;16.17;;;9.70;68.70;;;;;;5055457;28;20032;-78
2021/03/30 03:51:07;;;;;;;26.45;15.15;;;9.70;68.80;;;;;;5054222;28;20033;-78
2021/03/30 03:53:35;;;;;;;25.85;14.65;;;9.70;68.60;;;;;;5054283;28;20021;-78
2021/03/30 03:56:02;;;;;;;26.92;14.82;;;9.70;68.70;;;;;;5053970;28;20071;-79
2021/03/30 03:58:33;;;;;;;19.20;12.63;;;9.70;68.80;;;;;;5054274;28;20024;-78
2021/03/30 04:01:01;;;;;;;23.23;14.82;;;9.80;69.00;;;;;;5053990;28;20426;-78
2021/03/30 04:03:29;;;;;;;24.52;13.68;;;9.80;68.60;;;;;;5054146;28;20025;-79
2021/03/30 04:06:04;;;;;;;20.50;12.00;;;9.70;68.70;;;;;;5053423;28;20017;-79
2021/03/30 04:08:33;;;;;;;27.88;15.85;;;9.70;69.10;;;;;;5054230;28;20028;-79
2021/03/30 04:11:01;;;;;;;25.48;13.27;;;9.70;69.10;;;;;;5055191;28;20070;-79
2021/03/30 04:13:31;;;;;;;24.67;13.77;;;9.60;69.30;;;;;;5054107;28;20013;-79
2021/03/30 04:16:01;;;;;;;24.92;13.35;;;9.60;69.40;;;;;;5053863;28;20017;-79
2021/03/30 04:18:27;;;;;;;23.70;14.50;;;9.50;69.90;;;;;;5054152;28;20017;-79
2021/03/30 04:20:53;;;;;;;21.73;13.05;;;9.50;70.00;;;;;;5053961;28;20035;-78
2021/03/30 04:23:23;;;;;;;30.52;16.20;;;9.50;69.70;;;;;;5053841;28;20013;-78
2021/03/30 04:25:48;;;;;;;25.08;14.63;;;9.40;69.90;;;;;;5053559;28;20021;-78
2021/03/30 04:28:14;;;;;;;24.83;15.18;;;9.40;69.80;;;;;;5053739;28;20024;-79
2021/03/30 04:30:39;;;;;;;26.05;13.60;;;9.40;69.90;;;;;;5053101;28;20021;-79
2021/03/30 04:33:05;;;;;;;26.35;14.38;;;9.50;70.40;;;;;;5054826;28;20092;-79
2021/03/30 04:35:31;;;;;;;22.35;13.05;;;9.50;70.60;;;;;;5053555;28;20072;-79
2021/03/30 04:37:56;;;;;;;20.70;12.75;;;9.50;70.40;;;;;;5053330;28;20617;-79
2021/03/30 04:40:23;;;;;;;20.38;11.90;;;9.50;70.80;;;;;;5053562;28;20055;-80
2021/03/30 04:42:48;;;;;;;23.67;12.93;;;9.60;71.10;;;;;;5053182;28;20028;-80
2021/03/30 04:45:14;;;;;;;27.45;15.98;;;9.60;71.40;;;;;;5053248;28;20025;-79
2021/03/30 04:47:40;;;;;;;27.15;15.48;;;9.60;71.10;;;;;;5054761;28;20013;-79
2021/03/30 04:50:07;;;;;;;27.80;14.15;;;9.60;71.20;;;;;;5053130;28;20017;-79
2021/03/30 04:52:32;;;;;;;22.00;13.07;;;9.50;70.80;;;;;;5053223;28;20024;-78
2021/03/30 04:54:58;;;;;;;27.17;15.60;;;9.50;71.10;;;;;;5053064;28;20346;-79
2021/03/30 04:57:24;;;;;;;27.38;16.35;;;9.50;70.90;;;;;;5053255;28;20102;-79
2021/03/30 04:59:49;;;;;;;27.23;14.23;;;9.50;70.80;;;;;;5052991;28;20032;-78
2021/03/30 05:02:15;;;;;;;26.73;15.32;;;9.50;70.90;;;;;;5053041;28;20025;-79
2021/03/30 05:04:40;;;;;;;31.48;16.30;;;9.50;71.00;;;;;;5054620;28;20033;-78
2021/03/30 05:07:06;;;;;;;24.83;14.40;;;9.50;70.70;;;;;;5052400;28;20040;-78
2021/03/30 05:09:32;;;;;;;22.30;14.43;;;9.50;70.70;;;;;;5052891;28;20021;-78
2021/03/30 05:11:57;;;;;;;26.75;16.10;;;9.40;70.50;;;;;;5052677;28;20029;-79
2021/03/30 05:14:23;;;;;;;29.88;17.05;;;9.40;70.90;;;;;;5052814;28;20501;-79
2021/03/30 05:16:48;;;;;;;27.08;15.65;;;9.40;70.70;;;;;;5052800;28;20017;-79
2021/03/30 05:19:14;;;;;;;29.33;15.35;;;9.40;70.70;;;;;;5052941;28;20349;-79
2021/03/30 05:21:39;;;;;;;28.50;17.10;;;9.40;71.00;;;;;;5052719;28;20396;-78
2021/03/30 05:24:06;;;;;;;33.95;17.58;;;9.40;71.10;;;;;;5052565;28;20104;-78
2021/03/30 05:26:31;;;;;;;31.92;17.75;;;9.40;71.00;;;;;;5052578;28;20115;-78
2021/03/30 05:28:57;;;;;;;26.08;15.02;;;9.40;70.70;;;;;;5053656;28;20480;-79
2021/03/30 05:31:22;;;;;;;33.42;17.52;;;9.40;70.90;;;;;;5052343;28;20074;-79
2021/03/30 05:33:48;;;;;;;30.27;15.85;;;9.40;71.10;;;;;;5053894;28;20025;-80
2021/03/30 05:36:14;;;;;;;35.53;18.25;;;9.40;71.20;;;;;;5052458;28;20025;-79
2021/03/30 05:38:40;;;;;;;28.45;15.00;;;9.40;71.20;;;;;;5052398;28;20028;-80
2021/03/30 05:41:06;;;;;;;30.90;16.88;;;9.50;71.00;;;;;;5051416;28;20028;-78
2021/03/30 05:43:33;;;;;;;31.38;16.80;;;9.50;70.90;;;;;;5053626;28;20536;-79
2021/03/30 05:46:00;;;;;;;26.70;14.35;;;9.50;71.10;;;;;;5051987;28;20028;-79
2021/03/30 05:48:26;;;;;;;31.27;15.98;;;9.60;71.10;;;;;;5052270;28;20024;-79
2021/03/30 05:50:51;;;;;;;31.67;16.73;;;9.60;70.90;;;;;;5051689;28;20465;-79
2021/03/30 05:53:18;;;;;;;32.75;16.75;;;9.60;70.70;;;;;;5051755;28;20017;-79
2021/03/30 05:55:45;;;;;;;39.67;18.00;;;9.60;71.10;;;;;;5053129;28;20020;-78
2021/03/30 05:58:11;;;;;;;31.10;18.88;;;9.70;71.10;;;;;;5052772;28;20025;-79
2021/03/30 06:00:47;;;;;;;29.77;16.70;;;9.80;70.90;;;;;;5051891;28;20059;-79
2021/03/30 06:03:22;;;;;;;26.70;15.05;;;9.80;70.80;;;;;;5051902;28;20017;-80
2021/03/30 06:05:52;;;;;;;32.22;16.98;;;9.90;70.80;;;;;;5051439;28;20021;-80
2021/03/30 06:08:21;;;;;;;26.75;16.38;;;10.10;71.00;;;;;;5051681;28;20055;-79
2021/03/30 06:10:47;;;;;;;29.95;16.38;;;10.10;71.60;;;;;;5051556;28;20057;-79
2021/03/30 06:13:13;;;;;;;29.17;15.98;;;10.30;70.90;;;;;;5052187;28;20067;-79
2021/03/30 06:15:39;;;;;;;36.47;17.05;;;10.40;70.40;;;;;;5051635;28;20021;-78
2021/03/30 06:18:21;;;;;;;32.53;17.08;;;10.50;70.50;;;;;;5051190;28;20021;-79
2021/03/30 06:20:46;;;;;;;35.83;18.85;;;10.60;69.90;;;;;;5052562;28;20075;-79
2021/03/30 06:23:12;;;;;;;35.58;19.27;;;10.70;69.30;;;;;;5058597;28;20378;-79
2021/03/30 06:25:42;;;;;;;36.35;19.27;;;10.80;69.00;;;;;;5058403;28;20013;-78
2021/03/30 06:28:10;;;;;;;34.13;19.17;;;10.90;68.60;;;;;;5070909;28;20051;-77
2021/03/30 06:30:38;;;;;;;41.78;21.58;;;11.00;67.90;;;;;;5072337;28;20029;-78
2021/03/30 06:33:06;;;;;;;39.30;20.58;;;11.10;67.10;;;;;;5055836;28;20021;-77
2021/03/30 06:35:32;;;;;;;40.10;20.35;;;11.20;66.30;;;;;;5052434;28;20028;-78
2021/03/30 06:37:57;;;;;;;37.10;19.30;;;11.40;66.10;;;;;;5051038;28;20013;-78
2021/03/30 06:40:36;;;;;;;39.50;22.00;;;11.50;65.40;;;;;;5050970;28;20017;-78
2021/03/30 06:46:08;;;;;;;39.20;20.75;;;11.70;64.40;;;;;;5051653;28;20374;-80
2021/03/30 06:48:34;;;;;;;39.33;20.20;;;11.90;63.80;;;;;;5050636;28;20108;-78
2021/03/30 06:51:18;;;;;;;46.67;23.35;;;12.10;63.30;;;;;;5052152;28;20058;-79
2021/03/30 06:53:44;;;;;;;40.25;21.60;;;12.10;62.20;;;;;;5051045;28;20053;-78
2021/03/30 06:56:10;;;;;;;40.85;22.33;;;12.20;61.60;;;;;;5052611;28;20052;-78
2021/03/30 06:58:56;;;;;;;41.28;22.83;;;12.30;61.40;;;;;;5051324;28;20017;-78
2021/03/30 07:01:23;;;;;;;45.78;24.95;;;12.50;61.10;;;;;;5050409;28;20017;-79
2021/03/30 07:03:49;;;;;;;44.30;22.33;;;12.60;60.40;;;;;;5070277;28;20028;-79
2021/03/30 07:06:16;;;;;;;38.95;21.30;;;12.70;60.10;;;;;;5069312;28;20064;-78
2021/03/30 07:08:42;;;;;;;43.72;22.98;;;12.80;59.90;;;;;;5077139;28;20086;-78
2021/03/30 07:11:08;;;;;;;42.17;22.65;;;12.90;59.40;;;;;;5080763;28;20031;-79
2021/03/30 07:13:33;;;;;;;43.90;21.98;;;13.00;59.40;;;;;;5071342;28;20024;-79
2021/03/30 07:16:17;;;;;;;45.00;23.40;;;13.20;59.20;;;;;;5086490;28;20020;-79
2021/03/30 07:18:45;;;;;;;45.05;21.48;;;13.20;59.10;;;;;;5062908;28;20058;-79
2021/03/30 07:21:20;;;;;;;40.78;22.63;;;13.40;58.70;;;;;;5081928;28;20031;-79
2021/03/30 07:24:05;;;;;;;43.40;22.45;;;13.50;58.50;;;;;;5084548;28;20024;-80
2021/03/30 07:26:58;;;;;;;43.28;24.20;;;13.60;58.70;;;;;;5052703;28;20059;-77
2021/03/30 07:29:30;;;;;;;40.75;22.38;;;13.70;58.20;;;;;;5073136;28;20360;-78
2021/03/30 07:32:31;;;;;;;51.55;25.15;;;13.90;58.10;;;;;;5075216;28;20078;-78
2021/03/30 07:35:01;;;;;;;46.40;23.45;;;13.90;57.50;;;;;;5067599;28;20012;-78
2021/03/30 07:37:51;;;;;;;41.17;23.60;;;14.00;57.20;;;;;;5078300;28;20045;-79
2021/03/30 07:40:18;;;;;;;42.83;23.77;;;14.20;56.50;;;;;;5086828;28;20026;-78
2021/03/30 07:42:46;;;;;;;46.33;23.48;;;14.30;56.30;;;;;;5077102;28;20099;-79
2021/03/30 07:45:13;;;;;;;46.70;26.35;;;14.40;56.50;;;;;;5080048;28;20103;-79
2021/03/30 07:47:40;;;;;;;45.80;24.98;;;14.50;56.40;;;;;;5083585;28;20029;-79
2021/03/30 07:50:11;;;;;;;44.85;24.50;;;14.70;56.50;;;;;;5073318;28;20063;-79
2021/03/30 07:52:50;;;;;;;42.75;24.50;;;15.00;55.60;;;;;;5084973;28;20495;-79
2021/03/30 07:55:23;;;;;;;46.80;25.08;;;15.10;55.10;;;;;;5080191;28;20016;-79
2021/03/30 07:58:01;;;;;;;45.53;24.48;;;15.30;55.10;;;;;;5076304;28;20012;-80
2021/03/30 08:00:33;;;;;;;43.00;26.13;;;15.50;54.50;;;;;;5058536;28;20063;-79
2021/03/30 08:03:10;;;;;;;41.63;23.17;;;15.70;53.90;;;;;;5083421;28;20013;-79
2021/03/30 08:05:37;;;;;;;46.03;24.63;;;15.80;53.50;;;;;;5085547;28;20103;-79
2021/03/30 08:08:20;;;;;;;42.03;24.20;;;15.90;53.40;;;;;;5078072;28;20044;-77
2021/03/30 08:10:47;;;;;;;41.20;23.35;;;16.00;53.40;;;;;;5088449;28;20024;-77
2021/03/30 08:13:26;;;;;;;37.05;21.70;;;16.10;53.20;;;;;;5084095;28;20062;-79
2021/03/30 08:15:54;;;;;;;40.40;23.05;;;16.20;52.50;;;;;;5079552;28;20016;-77
2021/03/30 08:18:21;;;;;;;37.85;22.83;;;16.40;52.90;;;;;;5094465;28;20023;-79
2021/03/30 08:20:50;;;;;;;37.28;23.40;;;16.60;52.90;;;;;;5087106;28;20021;-79
2021/03/30 08:23:17;;;;;;;43.85;25.52;;;16.70;52.20;;;;;;5083407;28;20368;-77
2021/03/30 08:25:46;;;;;;;35.33;20.38;;;16.70;51.60;;;;;;5079138;28;20400;-79
2021/03/30 08:28:50;;;;;;;43.85;23.15;;;16.90;52.90;;;;;;5089513;28;20069;-77
2021/03/30 08:31:20;;;;;;;40.55;22.38;;;17.00;51.20;;;;;;5080295;28;20036;-77
2021/03/30 08:33:49;;;;;;;41.80;23.42;;;17.10;50.80;;;;;;5081921;28;20016;-78
2021/03/30 08:36:22;;;;;;;41.15;22.15;;;17.30;51.00;;;;;;5077415;28;20013;-77
2021/03/30 08:38:50;;;;;;;32.78;21.00;;;17.40;51.80;;;;;;5087390;28;20453;-77
2021/03/30 08:41:44;;;;;;;43.67;23.73;;;17.60;50.60;;;;;;5084838;28;20514;-78
2021/03/30 08:44:15;;;;;;;41.63;24.30;;;17.70;50.30;;;;;;5077699;28;20020;-76
2021/03/30 08:46:45;;;;;;;40.10;23.27;;;17.80;49.60;;;;;;5089418;28;20019;-78
2021/03/30 08:49:33;;;;;;;40.08;23.63;;;17.90;49.80;;;;;;5084933;28;20027;-79
2021/03/30 08:51:59;;;;;;;38.65;24.13;;;18.10;48.50;;;;;;5078224;28;20388;-78
2021/03/30 08:54:30;;;;;;;33.70;18.25;;;18.20;49.00;;;;;;5090280;28;20017;-79
2021/03/30 08:56:58;;;;;;;45.70;21.67;;;18.30;52.90;;;;;;5080404;28;20077;-77
2021/03/30 08:59:27;;;;;;;46.20;23.92;;;18.40;53.70;;;;;;5080978;28;20024;-76
2021/03/30 09:02:04;;;;;;;45.67;24.58;;;18.50;50.80;;;;;;5088609;28;20023;-78
2021/03/30 09:04:31;;;;;;;47.17;24.98;;;18.60;48.60;;;;;;5061352;28;20016;-78
2021/03/30 09:06:58;;;;;;;43.25;23.67;;;18.60;47.70;;;;;;5084511;28;20037;-78
2021/03/30 09:09:27;;;;;;;40.58;24.17;;;18.60;49.60;;;;;;5085165;28;20016;-78
2021/03/30 09:11:52;;;;;;;34.97;19.40;;;18.70;49.30;;;;;;5076782;28;20059;-78
2021/03/30 09:14:22;;;;;;;42.28;22.55;;;18.70;48.80;;;;;;5088712;28;20097;-79
2021/03/30 09:16:52;;;;;;;39.72;21.85;;;18.80;49.40;;;;;;5079675;28;20137;-78
2021/03/30 09:19:31;;;;;;;39.70;23.35;;;18.90;47.70;;;;;;5081598;28;20021;-77
2021/03/30 09:22:01;;;;;;;32.35;19.00;;;19.10;49.90;;;;;;5089184;28;20028;-78
2021/03/30 09:24:42;;;;;;;29.08;18.40;;;19.30;50.00;;;;;;5058944;28;20103;-79
2021/03/30 09:27:08;;;;;;;38.60;23.92;;;19.50;52.60;;;;;;5082487;28;20028;-77
2021/03/30 09:29:35;;;;;;;22.40;13.27;;;19.70;48.20;;;;;;5076707;28;20021;-77
2021/03/30 09:32:06;;;;;;;31.27;19.05;;;20.10;53.60;;;;;;5066397;28;20114;-77
2021/03/30 09:34:32;;;;;;;34.80;21.65;;;20.30;50.40;;;;;;5055828;28;20159;-78
2021/03/30 09:36:59;;;;;;;38.78;22.70;;;20.40;50.10;;;;;;5054102;28;20465;-76
2021/03/30 09:39:27;;;;;;;33.30;17.20;;;20.40;50.00;;;;;;5052143;28;20036;-78
2021/03/30 09:41:54;;;;;;;38.15;22.77;;;20.60;52.50;;;;;;5051760;28;20048;-77
2021/03/30 09:44:22;;;;;;;31.10;18.42;;;20.80;48.10;;;;;;5051938;28;20369;-76
2021/03/30 09:46:50;;;;;;;30.63;16.98;;;21.10;49.70;;;;;;5051945;28;20450;-77
2021/03/30 09:49:20;;;;;;;36.05;20.67;;;21.30;48.00;;;;;;5052127;28;20017;-77
2021/03/30 09:51:46;;;;;;;32.40;20.05;;;21.40;45.60;;;;;;5051703;28;20040;-76
2021/03/30 09:54:26;;;;;;;11.43;6.88;;;21.40;47.90;;;;;;5053014;28;20009;-77
2021/03/30 09:57:10;;;;;;;12.75;7.10;;;21.40;57.00;;;;;;5052700;28;20444;-77
2021/03/30 09:59:36;;;;;;;17.63;9.20;;;21.50;56.60;;;;;;5051609;28;20017;-76
2021/03/30 10:02:02;;;;;;;8.40;4.43;;;21.70;56.60;;;;;;5052497;28;20028;-76
2021/03/30 10:04:31;;;;;;;13.02;6.65;;;21.90;57.80;;;;;;5052539;28;20048;-76
2021/03/30 10:06:57;;;;;;;10.20;4.78;;;22.20;57.60;;;;;;5050858;28;20052;-76
2021/03/30 10:09:22;;;;;;;18.67;10.65;;;22.40;57.20;;;;;;5053037;28;20025;-76
2021/03/30 10:11:50;;;;;;;10.88;5.07;;;22.60;56.20;;;;;;5052746;28;20033;-77
2021/03/30 10:14:17;;;;;;;11.95;4.85;;;22.70;56.80;;;;;;5051450;28;20124;-76
2021/03/30 10:16:44;;;;;;;28.33;15.07;;;22.80;57.80;;;;;;5052999;28;20488;-76
2021/03/30 10:19:13;;;;;;;22.25;13.25;;;22.70;57.00;;;;;;5052709;28;20013;-76
2021/03/30 10:21:39;;;;;;;30.45;20.00;;;22.50;52.80;;;;;;5051556;28;20199;-76
2021/03/30 10:24:17;;;;;;;33.17;17.98;;;22.50;44.90;;;;;;5050994;28;20029;-75
2021/03/30 10:26:59;;;;;;;18.27;10.07;;;22.60;40.40;;;;;;5052643;28;20025;-76
2021/03/30 10:29:31;;;;;;;23.95;14.80;;;22.90;45.90;;;;;;5053096;28;20112;-76
2021/03/30 10:32:04;;;;;;;20.85;13.05;;;23.20;42.30;;;;;;5057858;28;20020;-77
2021/03/30 10:34:32;;;;;;;22.50;12.77;;;23.40;36.10;;;;;;5071324;28;20024;-76
2021/03/30 10:37:01;;;;;;;23.05;11.82;;;23.50;40.20;;;;;;5072057;28;20066;-76
2021/03/30 10:39:39;;;;;;;16.92;10.00;;;23.50;38.10;;;;;;5071326;28;20021;-77
2021/03/30 10:42:12;;;;;;;19.50;11.93;;;23.50;39.40;;;;;;5072229;28;20031;-77
2021/03/30 10:44:55;;;;;;;21.15;12.20;;;23.50;38.70;;;;;;5072448;28;20460;-76
2021/03/30 10:47:35;;;;;;;19.10;10.88;;;23.60;38.30;;;;;;5072541;28;20362;-77
2021/03/30 10:50:02;;;;;;;19.42;12.35;;;23.80;45.00;;;;;;5070626;28;20013;-76
2021/03/30 10:52:35;;;;;;;23.70;14.05;;;23.90;41.70;;;;;;5070979;28;20016;-76
2021/03/30 10:55:05;;;;;;;25.48;12.85;;;24.00;37.50;;;;;;5072014;28;20514;-76
2021/03/30 10:57:35;;;;;;;18.42;11.00;;;24.10;36.60;;;;;;5072339;28;20035;-75
2021/03/30 11:00:03;;;;;;;25.95;14.93;;;24.30;37.00;;;;;;5070806;28;20051;-75
2021/03/30 11:02:29;;;;;;;26.10;14.15;;;24.50;35.80;;;;;;5071013;28;20411;-76
2021/03/30 11:04:55;;;;;;;15.82;8.32;;;24.70;35.90;;;;;;5072124;28;20012;-76
2021/03/30 11:07:20;;;;;;;16.95;9.57;;;24.90;50.30;;;;;;5070611;28;20067;-75
2021/03/30 11:09:46;;;;;;;29.83;17.85;;;24.80;45.40;;;;;;5072257;28;20029;-75
2021/03/30 11:12:13;;;;;;;23.55;13.95;;;24.70;31.10;;;;;;5070321;28;20373;-75
2021/03/30 11:14:39;;;;;;;30.83;16.98;;;24.60;36.30;;;;;;5071939;28;20368;-75
2021/03/30 11:17:05;;;;;;;28.58;18.48;;;24.70;37.20;;;;;;5070701;28;20020;-75
2021/03/30 11:19:30;;;;;;;27.55;16.88;;;24.80;32.80;;;;;;5072358;28;20147;-75
2021/03/30 11:21:57;;;;;;;30.17;17.02;;;25.00;33.00;;;;;;5071857;28;20051;-75
2021/03/30 11:24:25;;;;;;;27.67;16.70;;;25.20;40.20;;;;;;5070796;28;20367;-76
2021/03/30 11:26:54;;;;;;;26.02;15.88;;;25.40;40.00;;;;;;5072176;28;20020;-74
2021/03/30 11:29:26;;;;;;;17.55;9.13;;;25.40;38.30;;;;;;5072057;28;20021;-73
2021/03/30 11:39:36;;;;;;;26.23;16.88;;;25.30;36.20;;;;;;5073458;28;20038;-75
2021/03/30 11:42:03;;;;;;;33.00;20.38;;;25.40;36.60;;;;;;5075660;28;20048;-75
2021/03/30 11:44:28;;;;;;;29.45;18.52;;;25.60;31.50;;;;;;5075829;28;20095;-75
2021/03/30 11:46:54;;;;;;;27.50;17.88;;;25.60;38.50;;;;;;5075842;28;20050;-75
2021/03/30 11:49:19;;;;;;;30.58;19.88;;;25.50;40.30;;;;;;5076906;28;20012;-75
2021/03/30 11:51:45;;;;;;;20.42;13.25;;;25.50;33.30;;;;;;5076580;28;20024;-75
2021/03/30 11:54:11;;;;;;;32.85;20.83;;;25.60;41.30;;;;;;5074678;28;20035;-76
2021/03/30 11:56:36;;;;;;;29.95;17.67;;;25.60;31.90;;;;;;5075820;28;20419;-76
2021/03/30 11:59:02;;;;;;;29.55;17.52;;;25.70;37.30;;;;;;5073918;28;20021;-76
2021/03/30 12:01:27;;;;;;;32.22;16.92;;;25.80;36.00;;;;;;5074131;28;20070;-76
2021/03/30 12:03:53;;;;;;;19.73;10.65;;;25.90;29.70;;;;;;5074525;28;20503;-75
2021/03/30 12:06:18;;;;;;;19.52;10.77;;;25.90;46.70;;;;;;5075167;28;20068;-76
2021/03/30 12:08:44;;;;;;;27.83;14.57;;;25.80;51.30;;;;;;5073984;28;20027;-76
2021/03/30 12:11:10;;;;;;;28.08;14.75;;;25.80;44.80;;;;;;5075233;28;20100;-75
2021/03/30 12:13:35;;;;;;;23.38;14.05;;;25.70;44.20;;;;;;5073968;28;20506;-76
2021/03/30 12:16:01;;;;;;;22.35;13.40;;;25.40;48.10;;;;;;5073795;28;20031;-76
2021/03/30 12:18:28;;;;;;;22.17;12.02;;;25.40;49.90;;;;;;5075263;28;20459;-75
2021/03/30 12:20:53;;;;;;;18.85;10.75;;;25.40;45.00;;;;;;5073739;28;20016;-76
2021/03/30 12:23:19;;;;;;;23.08;13.43;;;25.40;49.60;;;;;;5074934;28;20090;-76
2021/03/30 12:25:44;;;;;;;20.05;12.65;;;25.50;33.10;;;;;;5073822;28;20012;-75
2021/03/30 12:28:10;;;;;;;20.85;12.10;;;25.50;43.70;;;;;;5073379;28;20025;-76
2021/03/30 12:30:36;;;;;;;24.75;14.35;;;25.60;49.50;;;;;;5074829;28;20101;-76
2021/03/30 12:33:02;;;;;;;24.27;14.77;;;25.70;36.00;;;;;;5058676;28;20033;-76
2021/03/30 12:35:27;;;;;;;22.58;10.68;;;25.80;48.80;;;;;;5053255;28;20025;-76
2021/03/30 12:37:53;;;;;;;19.15;12.05;;;25.90;54.80;;;;;;5054881;28;20071;-75
2021/03/30 12:40:19;;;;;;;18.30;12.00;;;26.00;48.80;;;;;;5053216;28;20020;-76
2021/03/30 12:42:45;;;;;;;25.30;13.48;;;26.00;51.00;;;;;;5054818;28;20096;-75
2021/03/30 12:45:11;;;;;;;41.85;20.63;;;26.00;51.60;;;;;;5054347;28;20515;-75
2021/03/30 12:47:37;;;;;;;26.63;14.10;;;25.60;32.60;;;;;;5055074;28;20032;-75
2021/03/30 12:50:03;;;;;;;24.50;14.73;;;25.60;44.30;;;;;;5054082;28;20024;-75